sensor_id;sensor_type;location;lat;lon;timestamp;pressure;altitude;pressure_sealevel;temperature;humidity
15750;BME280;7976;52.526;13.326;2022-08-11T00:00:35;101970.09;;;21.58;53.20
15750;BME280;7976;52.526;13.326;2022-08-11T00:03:06;101973.91;;;21.54;53.80
15750;BME280;7976;52.526;13.326;2022-08-11T00:05:43;101972.31;;;21.52;53.62
15750;BME280;7976;52.526;13.326;2022-08-11T00:08:21;101970.66;;;21.49;53.52
15750;BME280;7976;52.526;13.326;2022-08-11T00:10:52;101970.88;;;21.46;53.80
15750;BME280;7976;52.526;13.326;2022-08-11T00:13:33;101972.00;;;21.42;53.72
15750;BME280;7976;52.526;13.326;2022-08-11T00:16:02;101965.06;;;21.40;53.86
15750;BME280;7976;52.526;13.326;2022-08-11T00:18:39;101972.28;;;21.38;53.73
15750;BME280;7976;52.526;13.326;2022-08-11T00:21:06;101968.19;;;21.32;54.11
15750;BME280;7976;52.526;13.326;2022-08-11T00:23:42;101962.97;;;21.31;54.02
15750;BME280;7976;52.526;13.326;2022-08-11T00:26:11;101968.38;;;21.29;54.42
15750;BME280;7976;52.526;13.326;2022-08-11T00:28:40;101970.28;;;21.27;54.15
15750;BME280;7976;52.526;13.326;2022-08-11T00:31:21;101965.16;;;21.24;53.92
15750;BME280;7976;52.526;13.326;2022-08-11T00:33:50;101970.66;;;21.21;54.25
15750;BME280;7976;52.526;13.326;2022-08-11T00:36:23;101963.63;;;21.20;54.34
15750;BME280;7976;52.526;13.326;2022-08-11T00:38:52;101963.81;;;21.17;54.61
15750;BME280;7976;52.526;13.326;2022-08-11T00:41:31;101969.31;;;21.14;54.40
15750;BME280;7976;52.526;13.326;2022-08-11T00:44:18;101964.19;;;21.11;54.34
15750;BME280;7976;52.526;13.326;2022-08-11T00:47:01;101962.66;;;21.07;54.38
15750;BME280;7976;52.526;13.326;2022-08-11T00:49:44;101966.28;;;21.06;55.12
15750;BME280;7976;52.526;13.326;2022-08-11T00:52:32;101964.56;;;21.05;54.97
15750;BME280;7976;52.526;13.326;2022-08-11T00:55:26;101965.50;;;21.04;54.41
15750;BME280;7976;52.526;13.326;2022-08-11T00:58:56;101965.97;;;20.96;54.77
15750;BME280;7976;52.526;13.326;2022-08-11T01:01:56;101968.88;;;20.92;54.80
15750;BME280;7976;52.526;13.326;2022-08-11T01:05:22;101968.88;;;20.92;54.99
15750;BME280;7976;52.526;13.326;2022-08-11T01:11:59;101975.44;;;20.86;54.95
15750;BME280;7976;52.526;13.326;2022-08-11T01:18:46;101969.59;;;20.80;55.42
15750;BME280;7976;52.526;13.326;2022-08-11T01:22:18;101971.69;;;20.75;55.23
15750;BME280;7976;52.526;13.326;2022-08-11T01:25:41;101973.69;;;20.71;55.22
15750;BME280;7976;52.526;13.326;2022-08-11T01:28:54;101969.50;;;20.67;55.47
15750;BME280;7976;52.526;13.326;2022-08-11T01:31:59;101969.69;;;20.64;55.38
15750;BME280;7976;52.526;13.326;2022-08-11T01:35:29;101969.88;;;20.61;55.90
15750;BME280;7976;52.526;13.326;2022-08-11T01:39:03;101973.38;;;20.62;55.75
15750;BME280;7976;52.526;13.326;2022-08-11T01:42:01;101975.34;;;20.58;55.49
15750;BME280;7976;52.526;13.326;2022-08-11T01:45:10;101968.50;;;20.54;55.52
15750;BME280;7976;52.526;13.326;2022-08-11T01:47:48;101969.44;;;20.53;55.71
15750;BME280;7976;52.526;13.326;2022-08-11T01:50:55;101967.66;;;20.54;55.67
15750;BME280;7976;52.526;13.326;2022-08-11T01:53:39;101965.06;;;20.52;55.71
15750;BME280;7976;52.526;13.326;2022-08-11T01:56:29;101963.44;;;20.50;55.92
15750;BME280;7976;52.526;13.326;2022-08-11T01:59:10;101958.41;;;20.45;55.79
15750;BME280;7976;52.526;13.326;2022-08-11T02:02:12;101961.16;;;20.44;56.01
15750;BME280;7976;52.526;13.326;2022-08-11T02:04:55;101958.50;;;20.44;55.96
15750;BME280;7976;52.526;13.326;2022-08-11T02:07:35;101965.69;;;20.42;56.21
15750;BME280;7976;52.526;13.326;2022-08-11T02:10:18;101964.09;;;20.39;56.14
15750;BME280;7976;52.526;13.326;2022-08-11T02:13:17;101959.88;;;20.35;56.31
15750;BME280;7976;52.526;13.326;2022-08-11T02:15:54;101964.41;;;20.33;56.56
15750;BME280;7976;52.526;13.326;2022-08-11T02:18:35;101958.31;;;20.31;56.37
15750;BME280;7976;52.526;13.326;2022-08-11T02:21:26;101956.72;;;20.29;56.65
15750;BME280;7976;52.526;13.326;2022-08-11T02:24:19;101958.59;;;20.27;56.51
15750;BME280;7976;52.526;13.326;2022-08-11T02:26:59;101957.81;;;20.25;56.77
15750;BME280;7976;52.526;13.326;2022-08-11T02:29:36;101955.34;;;20.22;56.61
15750;BME280;7976;52.526;13.326;2022-08-11T02:32:16;101953.56;;;20.22;56.35
15750;BME280;7976;52.526;13.326;2022-08-11T02:35:15;101957.09;;;20.23;56.27
15750;BME280;7976;52.526;13.326;2022-08-11T02:37:59;101953.56;;;20.22;56.56
15750;BME280;7976;52.526;13.326;2022-08-11T02:40:42;101957.22;;;20.20;56.74
15750;BME280;7976;52.526;13.326;2022-08-11T02:43:27;101946.78;;;20.17;57.05
15750;BME280;7976;52.526;13.326;2022-08-11T02:46:17;101948.56;;;20.16;57.02
15750;BME280;7976;52.526;13.326;2022-08-11T02:49:10;101950.41;;;20.16;57.10
15750;BME280;7976;52.526;13.326;2022-08-11T02:52:08;101951.47;;;20.12;57.25
15750;BME280;7976;52.526;13.326;2022-08-11T02:54:50;101950.53;;;20.13;57.09
15750;BME280;7976;52.526;13.326;2022-08-11T02:57:27;101947.94;;;20.11;56.88
15750;BME280;7976;52.526;13.326;2022-08-11T03:00:07;101947.13;;;20.11;57.13
15750;BME280;7976;52.526;13.326;2022-08-11T03:02:50;101951.56;;;20.10;57.34
15750;BME280;7976;52.526;13.326;2022-08-11T03:05:43;101947.13;;;20.11;57.07
15750;BME280;7976;52.526;13.326;2022-08-11T03:08:28;101953.25;;;20.11;57.17
15750;BME280;7976;52.526;13.326;2022-08-11T03:11:06;101948.91;;;20.10;57.36
15750;BME280;7976;52.526;13.326;2022-08-11T03:14:11;101948.91;;;20.10;57.43
15750;BME280;7976;52.526;13.326;2022-08-11T03:17:15;101945.56;;;20.07;57.23
15750;BME280;7976;52.526;13.326;2022-08-11T03:20:02;101947.63;;;20.02;57.37
15750;BME280;7976;52.526;13.326;2022-08-11T03:22:38;101942.50;;;19.98;57.28
15750;BME280;7976;52.526;13.326;2022-08-11T03:25:23;101947.81;;;19.98;57.24
15750;BME280;7976;52.526;13.326;2022-08-11T03:28:07;101954.81;;;19.99;57.54
15750;BME280;7976;52.526;13.326;2022-08-11T03:30:47;101949.41;;;20.01;57.22
15750;BME280;7976;52.526;13.326;2022-08-11T03:33:24;101949.50;;;19.99;57.17
15750;BME280;7976;52.526;13.326;2022-08-11T03:36:27;101947.81;;;19.98;57.37
15750;BME280;7976;52.526;13.326;2022-08-11T03:39:13;101942.56;;;19.97;57.56
15750;BME280;7976;52.526;13.326;2022-08-11T03:42:00;101953.13;;;19.98;57.73
15750;BME280;7976;52.526;13.326;2022-08-11T03:44:46;101954.81;;;19.99;57.69
15750;BME280;7976;52.526;13.326;2022-08-11T03:47:41;101950.47;;;19.98;57.50
15750;BME280;7976;52.526;13.326;2022-08-11T03:50:26;101953.91;;;20.01;57.32
15750;BME280;7976;52.526;13.326;2022-08-11T03:53:11;101952.94;;;20.02;57.34
15750;BME280;7976;52.526;13.326;2022-08-11T03:56:12;101949.34;;;20.03;57.36
15750;BME280;7976;52.526;13.326;2022-08-11T03:59:32;101949.34;;;20.03;57.47
15750;BME280;7976;52.526;13.326;2022-08-11T04:02:36;101952.84;;;20.03;57.32
15750;BME280;7976;52.526;13.326;2022-08-11T04:05:45;101951.31;;;19.99;57.50
15750;BME280;7976;52.526;13.326;2022-08-11T04:09:11;101948.66;;;19.99;57.49
15750;BME280;7976;52.526;13.326;2022-08-11T04:26:27;101951.22;;;20.01;57.47
15750;BME280;7976;52.526;13.326;2022-08-11T04:29:16;101952.06;;;20.01;57.67
15750;BME280;7976;52.526;13.326;2022-08-11T04:32:13;101962.66;;;20.03;57.79
15750;BME280;7976;52.526;13.326;2022-08-11T04:35:10;101959.81;;;20.06;57.72
15750;BME280;7976;52.526;13.326;2022-08-11T04:38:08;101961.41;;;20.08;57.52
15750;BME280;7976;52.526;13.326;2022-08-11T04:40:55;101959.63;;;20.09;57.44
15750;BME280;7976;52.526;13.326;2022-08-11T04:44:30;101957.75;;;20.11;57.45
15750;BME280;7976;52.526;13.326;2022-08-11T04:47:44;101959.34;;;20.13;57.65
15750;BME280;7976;52.526;13.326;2022-08-11T04:50:55;101958.38;;;20.16;57.83
15750;BME280;7976;52.526;13.326;2022-08-11T04:53:59;101953.84;;;20.18;57.46
15750;BME280;7976;52.526;13.326;2022-08-11T04:56:50;101964.28;;;20.21;57.83
15750;BME280;7976;52.526;13.326;2022-08-11T05:00:00;101965.06;;;20.23;58.09
15750;BME280;7976;52.526;13.326;2022-08-11T05:03:15;101955.94;;;20.27;57.83
15750;BME280;7976;52.526;13.326;2022-08-11T05:06:22;101964.59;;;20.30;57.93
15750;BME280;7976;52.526;13.326;2022-08-11T05:09:25;101967.94;;;20.34;57.91
15750;BME280;7976;52.526;13.326;2022-08-11T05:12:19;101966.84;;;20.38;57.87
15750;BME280;7976;52.526;13.326;2022-08-11T05:14:52;101967.50;;;20.41;57.69
15750;BME280;7976;52.526;13.326;2022-08-11T05:17:43;101966.28;;;20.47;57.70
15750;BME280;7976;52.526;13.326;2022-08-11T05:20:48;101971.41;;;20.50;57.40
15750;BME280;7976;52.526;13.326;2022-08-11T05:23:41;101962.50;;;20.51;57.50
15750;BME280;7976;52.526;13.326;2022-08-11T05:26:29;101968.50;;;20.54;57.30
15750;BME280;7976;52.526;13.326;2022-08-11T05:29:39;101973.66;;;20.57;57.01
15750;BME280;7976;52.526;13.326;2022-08-11T05:32:30;101971.66;;;20.61;56.84
15750;BME280;7976;52.526;13.326;2022-08-11T05:35:26;101976.72;;;20.65;56.78
15750;BME280;7976;52.526;13.326;2022-08-11T05:37:54;101977.47;;;20.67;56.96
15750;BME280;7976;52.526;13.326;2022-08-11T05:40:48;101978.06;;;20.72;56.59
15750;BME280;7976;52.526;13.326;2022-08-11T05:43:39;101982.34;;;20.75;56.78
15750;BME280;7976;52.526;13.326;2022-08-11T05:46:26;101979.59;;;20.76;56.17
15750;BME280;7976;52.526;13.326;2022-08-11T05:49:13;101982.91;;;20.80;56.39
15750;BME280;7976;52.526;13.326;2022-08-11T05:51:59;101983.69;;;20.82;56.14
15750;BME280;7976;52.526;13.326;2022-08-11T05:54:47;101985.22;;;20.86;56.07
15750;BME280;7976;52.526;13.326;2022-08-11T05:57:37;101989.41;;;20.90;56.16
15750;BME280;7976;52.526;13.326;2022-08-11T06:00:07;101989.16;;;20.94;56.38
15750;BME280;7976;52.526;13.326;2022-08-11T06:02:41;101989.00;;;20.97;56.13
15750;BME280;7976;52.526;13.326;2022-08-11T06:05:09;101989.56;;;21.02;55.89
15750;BME280;7976;52.526;13.326;2022-08-11T06:07:37;101984.91;;;21.06;56.21
15750;BME280;7976;52.526;13.326;2022-08-11T06:10:06;101994.41;;;21.10;56.22
15750;BME280;7976;52.526;13.326;2022-08-11T06:12:39;101988.94;;;21.13;56.01
15750;BME280;7976;52.526;13.326;2022-08-11T06:15:11;101994.94;;;21.17;55.88
15750;BME280;7976;52.526;13.326;2022-08-11T06:17:44;101990.25;;;21.20;55.42
15750;BME280;7976;52.526;13.326;2022-08-11T06:20:13;101987.41;;;21.23;55.58
15750;BME280;7976;52.526;13.326;2022-08-11T06:22:44;101988.84;;;21.29;55.37
15750;BME280;7976;52.526;13.326;2022-08-11T06:25:15;101987.81;;;21.31;55.38
15750;BME280;7976;52.526;13.326;2022-08-11T06:27:45;101998.06;;;21.37;55.53
15750;BME280;7976;52.526;13.326;2022-08-11T06:30:13;101998.63;;;21.42;54.79
15750;BME280;7976;52.526;13.326;2022-08-11T06:32:43;101991.22;;;21.47;55.08
15750;BME280;7976;52.526;13.326;2022-08-11T06:35:18;101999.59;;;21.55;54.87
15750;BME280;7976;52.526;13.326;2022-08-11T06:38:05;101999.22;;;21.61;55.18
15750;BME280;7976;52.526;13.326;2022-08-11T06:40:41;102005.13;;;21.66;54.91
15750;BME280;7976;52.526;13.326;2022-08-11T06:43:18;102001.13;;;21.73;54.99
15750;BME280;7976;52.526;13.326;2022-08-11T06:45:52;102003.22;;;21.82;55.18
15750;BME280;7976;52.526;13.326;2022-08-11T06:48:23;101999.97;;;21.91;54.57
15750;BME280;7976;52.526;13.326;2022-08-11T06:50:55;102001.09;;;22.01;54.89
15750;BME280;7976;52.526;13.326;2022-08-11T06:53:42;102002.22;;;22.11;54.27
15750;BME280;7976;52.526;13.326;2022-08-11T06:56:11;102005.34;;;22.18;54.08
15750;BME280;7976;52.526;13.326;2022-08-11T06:58:59;102000.47;;;22.24;54.31
15750;BME280;7976;52.526;13.326;2022-08-11T07:01:56;101999.97;;;22.32;53.68
15750;BME280;7976;52.526;13.326;2022-08-11T07:04:31;101988.88;;;22.38;53.41
15750;BME280;7976;52.526;13.326;2022-08-11T07:07:43;101993.63;;;22.47;53.52
15750;BME280;7976;52.526;13.326;2022-08-11T07:10:58;101986.75;;;22.57;53.29
15750;BME280;7976;52.526;13.326;2022-08-11T07:13:53;101994.00;;;22.68;53.01
15750;BME280;7976;52.526;13.326;2022-08-11T07:16:46;101988.06;;;22.77;52.91
15750;BME280;7976;52.526;13.326;2022-08-11T07:19:20;101991.94;;;22.85;52.81
15750;BME280;7976;52.526;13.326;2022-08-11T07:22:09;101988.72;;;22.93;52.64
15750;BME280;7976;52.526;13.326;2022-08-11T07:25:00;101985.44;;;23.02;52.58
15750;BME280;7976;52.526;13.326;2022-08-11T07:27:49;101992.06;;;23.09;52.42
15750;BME280;7976;52.526;13.326;2022-08-11T07:30:40;101985.13;;;23.19;51.98
15750;BME280;7976;52.526;13.326;2022-08-11T07:33:10;101982.13;;;23.23;51.80
15750;BME280;7976;52.526;13.326;2022-08-11T07:35:46;101979.91;;;23.30;51.76
15750;BME280;7976;52.526;13.326;2022-08-11T07:38:22;101979.50;;;23.36;52.04
15750;BME280;7976;52.526;13.326;2022-08-11T07:41:08;101976.25;;;23.43;51.68
15750;BME280;7976;52.526;13.326;2022-08-11T07:43:36;101980.09;;;23.52;51.43
15750;BME280;7976;52.526;13.326;2022-08-11T07:46:04;101981.38;;;23.59;50.99
15750;BME280;7976;52.526;13.326;2022-08-11T07:48:51;101979.75;;;23.69;51.01
15750;BME280;7976;52.526;13.326;2022-08-11T07:51:38;101975.69;;;23.76;50.65
15750;BME280;7976;52.526;13.326;2022-08-11T07:54:24;101975.75;;;23.87;50.95
15750;BME280;7976;52.526;13.326;2022-08-11T07:56:52;101975.09;;;23.96;50.83
15750;BME280;7976;52.526;13.326;2022-08-11T07:59:20;101978.94;;;24.05;50.24
15750;BME280;7976;52.526;13.326;2022-08-11T08:02:07;101973.78;;;24.14;50.05
15750;BME280;7976;52.526;13.326;2022-08-11T08:04:56;101973.19;;;24.22;49.79
15750;BME280;7976;52.526;13.326;2022-08-11T08:07:42;101980.66;;;24.29;49.32
15750;BME280;7976;52.526;13.326;2022-08-11T08:10:29;101983.75;;;24.36;49.17
15750;BME280;7976;52.526;13.326;2022-08-11T08:13:15;101974.03;;;24.46;49.20
15750;BME280;7976;52.526;13.326;2022-08-11T08:16:00;101976.13;;;24.53;49.07
15750;BME280;7976;52.526;13.326;2022-08-11T08:18:45;101975.56;;;24.61;48.44
15750;BME280;7976;52.526;13.326;2022-08-11T08:21:14;101975.88;;;24.69;48.38
15750;BME280;7976;52.526;13.326;2022-08-11T08:23:44;101973.44;;;24.77;47.50
15750;BME280;7976;52.526;13.326;2022-08-11T08:26:14;101974.34;;;24.89;46.90
15750;BME280;7976;52.526;13.326;2022-08-11T08:29:02;101963.03;;;24.96;46.84
15750;BME280;7976;52.526;13.326;2022-08-11T08:31:47;101964.03;;;25.06;47.20
15750;BME280;7976;52.526;13.326;2022-08-11T08:34:15;101966.97;;;25.14;46.47
15750;BME280;7976;52.526;13.326;2022-08-11T08:36:46;101963.91;;;25.19;46.35
15750;BME280;7976;52.526;13.326;2022-08-11T08:39:14;101964.41;;;25.24;46.39
15750;BME280;7976;52.526;13.326;2022-08-11T08:41:48;101968.56;;;25.28;46.13
15750;BME280;7976;52.526;13.326;2022-08-11T08:44:20;101953.94;;;25.32;46.33
15750;BME280;7976;52.526;13.326;2022-08-11T08:46:54;101958.84;;;25.38;46.70
15750;BME280;7976;52.526;13.326;2022-08-11T08:49:28;101961.88;;;25.44;46.67
15750;BME280;7976;52.526;13.326;2022-08-11T08:52:03;101964.94;;;25.51;45.36
15750;BME280;7976;52.526;13.326;2022-08-11T08:54:36;101968.72;;;25.59;45.24
15750;BME280;7976;52.526;13.326;2022-08-11T08:57:06;101968.94;;;25.67;44.62
15750;BME280;7976;52.526;13.326;2022-08-11T08:59:40;101961.97;;;25.76;44.91
15750;BME280;7976;52.526;13.326;2022-08-11T09:02:08;101955.28;;;25.81;44.46
15750;BME280;7976;52.526;13.326;2022-08-11T09:04:39;101957.56;;;25.86;45.13
15750;BME280;7976;52.526;13.326;2022-08-11T09:07:11;101954.28;;;25.93;44.53
15750;BME280;7976;52.526;13.326;2022-08-11T09:09:41;101955.59;;;25.99;44.32
15750;BME280;7976;52.526;13.326;2022-08-11T09:12:10;101955.88;;;26.07;43.66
15750;BME280;7976;52.526;13.326;2022-08-11T09:14:41;101953.66;;;26.12;43.00
15750;BME280;7976;52.526;13.326;2022-08-11T09:17:33;101954.34;;;26.14;43.00
15750;BME280;7976;52.526;13.326;2022-08-11T09:20:05;101946.78;;;26.19;43.14
15750;BME280;7976;52.526;13.326;2022-08-11T09:22:37;101943.59;;;26.25;43.24
15750;BME280;7976;52.526;13.326;2022-08-11T09:25:26;101943.06;;;26.31;43.02
15750;BME280;7976;52.526;13.326;2022-08-11T09:28:14;101953.78;;;26.42;42.66
15750;BME280;7976;52.526;13.326;2022-08-11T09:30:45;101951.31;;;26.50;41.81
15750;BME280;7976;52.526;13.326;2022-08-11T09:33:15;101948.81;;;26.58;41.23
15750;BME280;7976;52.526;13.326;2022-08-11T09:35:43;101944.03;;;26.62;41.06
15750;BME280;7976;52.526;13.326;2022-08-11T09:38:15;101949.91;;;26.67;40.85
15750;BME280;7976;52.526;13.326;2022-08-11T09:41:03;101948.41;;;26.74;40.47
15750;BME280;7976;52.526;13.326;2022-08-11T09:43:32;101954.69;;;26.84;40.31
15750;BME280;7976;52.526;13.326;2022-08-11T09:46:23;101944.28;;;26.90;39.88
15750;BME280;7976;52.526;13.326;2022-08-11T09:48:54;101933.97;;;26.95;40.00
15750;BME280;7976;52.526;13.326;2022-08-11T09:51:25;101923.81;;;26.99;39.75
15750;BME280;7976;52.526;13.326;2022-08-11T09:53:58;101921.56;;;27.04;39.47
15750;BME280;7976;52.526;13.326;2022-08-11T09:56:27;101923.44;;;27.13;39.79
15750;BME280;7976;52.526;13.326;2022-08-11T09:59:18;101920.38;;;27.17;39.59
15750;BME280;7976;52.526;13.326;2022-08-11T10:01:51;101926.88;;;27.25;39.09
15750;BME280;7976;52.526;13.326;2022-08-11T10:04:26;101924.44;;;27.33;39.28
15750;BME280;7976;52.526;13.326;2022-08-11T10:06:57;101925.56;;;27.40;38.98
15750;BME280;7976;52.526;13.326;2022-08-11T10:09:35;101909.19;;;27.43;38.69
15750;BME280;7976;52.526;13.326;2022-08-11T10:12:09;101911.44;;;27.47;38.54
15750;BME280;7976;52.526;13.326;2022-08-11T10:14:43;101911.16;;;27.50;38.33
15750;BME280;7976;52.526;13.326;2022-08-11T10:17:42;101906.38;;;27.54;38.72
15750;BME280;7976;52.526;13.326;2022-08-11T10:20:37;101908.63;;;27.58;37.91
15750;BME280;7976;52.526;13.326;2022-08-11T10:23:09;101907.25;;;27.64;38.18
15750;BME280;7976;52.526;13.326;2022-08-11T10:25:57;101898.75;;;27.68;37.71
15750;BME280;7976;52.526;13.326;2022-08-11T10:28:42;101898.50;;;27.71;37.79
15750;BME280;7976;52.526;13.326;2022-08-11T10:31:10;101901.19;;;27.81;38.06
15750;BME280;7976;52.526;13.326;2022-08-11T10:33:56;101903.06;;;27.90;38.12
15750;BME280;7976;52.526;13.326;2022-08-11T10:36:27;101895.16;;;27.98;37.79
15750;BME280;7976;52.526;13.326;2022-08-11T10:38:56;101892.91;;;28.03;37.38
15750;BME280;7976;52.526;13.326;2022-08-11T10:41:26;101883.53;;;28.07;37.67
15750;BME280;7976;52.526;13.326;2022-08-11T10:44:13;101886.34;;;28.15;37.25
15750;BME280;7976;52.526;13.326;2022-08-11T10:46:40;101882.69;;;28.16;37.07
15750;BME280;7976;52.526;13.326;2022-08-11T10:49:26;101883.66;;;28.15;36.69
15750;BME280;7976;52.526;13.326;2022-08-11T10:51:56;101876.59;;;28.14;36.54
15750;BME280;7976;52.526;13.326;2022-08-11T10:54:42;101870.47;;;28.12;36.50
15750;BME280;7976;52.526;13.326;2022-08-11T10:57:29;101866.81;;;28.13;36.40
15750;BME280;7976;52.526;13.326;2022-08-11T11:00:15;101857.72;;;28.14;36.79
15750;BME280;7976;52.526;13.326;2022-08-11T11:02:44;101857.88;;;28.22;37.17
15750;BME280;7976;52.526;13.326;2022-08-11T11:05:20;101856.00;;;28.32;37.21
15750;BME280;7976;52.526;13.326;2022-08-11T11:07:57;101850.78;;;28.40;37.29
15750;BME280;7976;52.526;13.326;2022-08-11T11:10:29;101864.38;;;28.48;37.18
15750;BME280;7976;52.526;13.326;2022-08-11T11:12:59;101856.44;;;28.56;37.06
15750;BME280;7976;52.526;13.326;2022-08-11T11:15:45;101858.13;;;28.57;36.62
15750;BME280;7976;52.526;13.326;2022-08-11T11:18:35;101862.25;;;28.61;35.93
15750;BME280;7976;52.526;13.326;2022-08-11T11:21:06;101859.84;;;28.58;35.55
15750;BME280;7976;52.526;13.326;2022-08-11T11:23:40;101846.38;;;28.58;35.59
15750;BME280;7976;52.526;13.326;2022-08-11T11:26:39;101842.66;;;28.59;35.73
15750;BME280;7976;52.526;13.326;2022-08-11T11:29:45;101829.59;;;28.64;36.03
15750;BME280;7976;52.526;13.326;2022-08-11T11:32:26;101833.72;;;28.68;36.16
15750;BME280;7976;52.526;13.326;2022-08-11T11:35:25;101828.72;;;28.73;35.96
15750;BME280;7976;52.526;13.326;2022-08-11T11:37:56;101827.41;;;28.77;35.20
15750;BME280;7976;52.526;13.326;2022-08-11T11:40:25;101828.69;;;28.83;35.13
15750;BME280;7976;52.526;13.326;2022-08-11T11:42:56;101829.25;;;28.86;35.21
15750;BME280;7976;52.526;13.326;2022-08-11T11:45:25;101830.66;;;28.90;34.90
15750;BME280;7976;52.526;13.326;2022-08-11T11:47:55;101825.66;;;28.95;34.93
15750;BME280;7976;52.526;13.326;2022-08-11T11:50:27;101820.28;;;28.95;35.14
15750;BME280;7976;52.526;13.326;2022-08-11T11:52:54;101832.91;;;28.95;35.25
15750;BME280;7976;52.526;13.326;2022-08-11T11:55:23;101812.19;;;28.95;35.10
15750;BME280;7976;52.526;13.326;2022-08-11T11:57:52;101815.97;;;29.02;35.21
15750;BME280;7976;52.526;13.326;2022-08-11T12:00:40;101814.66;;;29.06;34.78
15750;BME280;7976;52.526;13.326;2022-08-11T12:03:29;101812.09;;;29.14;34.71
15750;BME280;7976;52.526;13.326;2022-08-11T12:05:57;101808.44;;;29.15;34.33
15750;BME280;7976;52.526;13.326;2022-08-11T12:08:25;101802.16;;;29.15;34.56
15750;BME280;7976;52.526;13.326;2022-08-11T12:10:57;101805.56;;;29.17;34.66
15750;BME280;7976;52.526;13.326;2022-08-11T12:13:41;101807.09;;;29.19;34.76
15750;BME280;7976;52.526;13.326;2022-08-11T12:16:13;101802.00;;;29.16;34.82
15750;BME280;7976;52.526;13.326;2022-08-11T12:18:44;101795.91;;;29.14;34.67
15750;BME280;7976;52.526;13.326;2022-08-11T12:21:14;101790.91;;;29.19;34.56
15750;BME280;7976;52.526;13.326;2022-08-11T12:23:44;101793.03;;;29.25;34.87
15750;BME280;7976;52.526;13.326;2022-08-11T12:26:30;101791.00;;;29.27;34.66
15750;BME280;7976;52.526;13.326;2022-08-11T12:29:19;101787.63;;;29.25;34.52
15750;BME280;7976;52.526;13.326;2022-08-11T12:31:54;101782.50;;;29.22;34.84
15750;BME280;7976;52.526;13.326;2022-08-11T12:34:26;101784.22;;;29.23;34.34
15750;BME280;7976;52.526;13.326;2022-08-11T12:36:58;101790.34;;;29.25;33.85
15750;BME280;7976;52.526;13.326;2022-08-11T12:39:36;101785.59;;;29.27;33.96
15750;BME280;7976;52.526;13.326;2022-08-11T12:42:21;101787.31;;;29.28;33.74
15750;BME280;7976;52.526;13.326;2022-08-11T12:45:11;101781.94;;;29.28;33.51
15750;BME280;7976;52.526;13.326;2022-08-11T12:48:07;101770.88;;;29.22;33.77
15750;BME280;7976;52.526;13.326;2022-08-11T12:51:01;101772.09;;;29.27;33.62
15750;BME280;7976;52.526;13.326;2022-08-11T12:54:00;101764.88;;;29.28;33.60
15750;BME280;7976;52.526;13.326;2022-08-11T12:56:37;101754.06;;;29.28;33.86
15750;BME280;7976;52.526;13.326;2022-08-11T12:59:24;101762.56;;;29.33;33.92
15750;BME280;7976;52.526;13.326;2022-08-11T13:02:15;101756.03;;;29.35;33.41
15750;BME280;7976;52.526;13.326;2022-08-11T13:05:06;101751.16;;;29.39;33.37
15750;BME280;7976;52.526;13.326;2022-08-11T13:07:48;101751.41;;;29.45;33.40
15750;BME280;7976;52.526;13.326;2022-08-11T13:10:23;101740.06;;;29.60;33.00
15750;BME280;7976;52.526;13.326;2022-08-11T13:13:13;101746.41;;;29.68;32.50
15750;BME280;7976;52.526;13.326;2022-08-11T13:15:44;101744.72;;;29.67;32.30
15750;BME280;7976;52.526;13.326;2022-08-11T13:18:25;101743.00;;;29.66;32.41
15750;BME280;7976;52.526;13.326;2022-08-11T13:20:56;101738.75;;;29.64;32.56
15750;BME280;7976;52.526;13.326;2022-08-11T13:23:36;101737.03;;;29.63;32.49
15750;BME280;7976;52.526;13.326;2022-08-11T13:26:05;101735.34;;;29.62;32.44
15750;BME280;7976;52.526;13.326;2022-08-11T13:28:38;101734.50;;;29.61;32.60
15750;BME280;7976;52.526;13.326;2022-08-11T13:31:06;101731.94;;;29.60;32.71
15750;BME280;7976;52.526;13.326;2022-08-11T13:33:42;101730.25;;;29.59;33.06
15750;BME280;7976;52.526;13.326;2022-08-11T13:36:18;101730.09;;;29.60;32.81
15750;BME280;7976;52.526;13.326;2022-08-11T13:38:52;101723.16;;;29.58;33.15
15750;BME280;7976;52.526;13.326;2022-08-11T13:41:20;101727.72;;;29.57;33.36
15750;BME280;7976;52.526;13.326;2022-08-11T13:44:15;101717.09;;;29.56;32.85
15750;BME280;7976;52.526;13.326;2022-08-11T13:46:42;101710.34;;;29.60;32.50
15750;BME280;7976;52.526;13.326;2022-08-11T13:49:10;101700.94;;;29.64;32.78
15750;BME280;7976;52.526;13.326;2022-08-11T13:51:47;101703.38;;;29.67;32.14
15750;BME280;7976;52.526;13.326;2022-08-11T13:54:20;101709.75;;;29.66;31.68
15750;BME280;7976;52.526;13.326;2022-08-11T13:56:54;101699.22;;;29.63;31.61
15750;BME280;7976;52.526;13.326;2022-08-11T13:59:30;101706.06;;;29.67;31.53
15750;BME280;7976;52.526;13.326;2022-08-11T14:02:00;101698.94;;;29.66;31.76
15750;BME280;7976;52.526;13.326;2022-08-11T14:04:31;101695.88;;;29.61;31.31
15750;BME280;7976;52.526;13.326;2022-08-11T14:07:12;101707.66;;;29.60;31.42
15750;BME280;7976;52.526;13.326;2022-08-11T14:09:47;101697.72;;;29.60;31.77
15750;BME280;7976;52.526;13.326;2022-08-11T14:12:26;101699.56;;;29.60;32.11
15750;BME280;7976;52.526;13.326;2022-08-11T14:15:31;101693.59;;;29.56;32.38
15750;BME280;7976;52.526;13.326;2022-08-11T14:18:04;101692.41;;;29.50;31.55
15750;BME280;7976;52.526;13.326;2022-08-11T14:20:36;101697.94;;;29.49;31.63
15750;BME280;7976;52.526;13.326;2022-08-11T14:23:30;101687.13;;;29.49;31.26
15750;BME280;7976;52.526;13.326;2022-08-11T14:25:59;101682.59;;;29.49;31.50
15750;BME280;7976;52.526;13.326;2022-08-11T14:28:52;101682.28;;;29.52;31.57
15750;BME280;7976;52.526;13.326;2022-08-11T14:31:35;101672.88;;;29.57;31.73
15750;BME280;7976;52.526;13.326;2022-08-11T14:34:11;101678.97;;;29.59;31.25